Mandalena — SW5980 — position and weather

sailwx.info

Track history (hours):
 
Tides and Currents Weather Stations Pressure Air Temp Water Temp Dewpoint Dewpoint Depression Visibility Wind Speed Wind Dir Waves Ship Positions

Mandalena

Last reported at 2017-Sep-19 10:56 UTC. Time now 2017-Sep-20 01:52 UTC.
Position N 37°22' E 023°28'.

Length 44 m; draft 2.5 m.

Type: Ship (hazmat cat C). MMSI: 237016600.

Date/timePositionNaut miles runAvg speedWind from/ knotsBaromVisibWave heightAir tempDewpointWater temp
2017-Sep-19 10:56N 37°22' E 023°28'0 0.1
2017-Sep-19 08:57N 37°21' E 023°28'3 0.1
2017-Sep-17 19:25N 37°23' E 023°25'5 9.8
2017-Sep-17 18:57N 37°25' E 023°31'4 9.1
2017-Sep-17 18:30N 37°28' E 023°35'5 9.4
2017-Sep-17 18:00N 37°31' E 023°39'5 9.5
2017-Sep-17 17:30N 37°35' E 023°42'510.3
2017-Sep-17 17:00N 37°39' E 023°46'510.6
2017-Sep-17 16:30N 37°44' E 023°50'4 5.4
2017-Sep-17 15:45N 37°47' E 023°53'0 0.1
2017-Sep-17 15:28N 37°47' E 023°53'511.1
2017-Sep-17 15:00N 37°45' E 023°47'713.1
2017-Sep-17 14:30N 37°43' E 023°39'713.1
2017-Sep-17 14:00N 37°41' E 023°32'4 1.5
2017-Sep-17 11:24N 37°42' E 023°27'3 7.4
2017-Sep-17 10:59N 37°45' E 023°26'0 0.0
2017-Sep-17 10:30N 37°45' E 023°26'0 0.0
2017-Sep-17 10:00N 37°45' E 023°26'0 0.0
2017-Sep-17 09:30N 37°45' E 023°26'2 3.1
2017-Sep-17 08:59N 37°46' E 023°26'612.8
2017-Sep-17 08:30N 37°47' E 023°34'612.8
2017-Sep-17 08:00N 37°47' E 023°42'713.0
2017-Sep-17 07:30N 37°47' E 023°50'2 0.5
2017-Sep-17 04:02N 37°46' E 023°52'1 8.9
2017-Sep-17 03:58N 37°45' E 023°51'4 8.8
2017-Sep-17 03:30N 37°42' E 023°48'4 8.8
2017-Sep-17 02:59N 37°38' E 023°44'4 8.8
2017-Sep-17 02:31N 37°35' E 023°41'5 9.1
2017-Sep-17 02:00N 37°31' E 023°38'4 9.0
2017-Sep-17 01:30N 37°28' E 023°34'5 9.0
2017-Sep-17 01:00N 37°25' E 023°30'5 9.1
2017-Sep-17 00:27N 37°23' E 023°24'3 0.2
2017-Sep-16 09:18N 37°22' E 023°28'0 0.4
2017-Sep-16 08:58N 37°22' E 023°28'3 0.2
2017-Sep-15 16:55N 37°24' E 023°26'410.1
2017-Sep-15 16:30N 37°25' E 023°31'5 9.3
2017-Sep-15 15:59N 37°29' E 023°35'5 9.8
2017-Sep-15 15:30N 37°33' E 023°37'5 9.8
2017-Sep-15 15:00N 37°38' E 023°40'510.6
2017-Sep-15 14:31N 37°42' E 023°43'510.6
2017-Sep-15 14:00N 37°47' E 023°46'1 2.5
2017-Sep-15 13:30N 37°48' E 023°47'1 2.8
2017-Sep-15 13:00N 37°47' E 023°46'613.0
2017-Sep-15 12:30N 37°44' E 023°38'713.2
2017-Sep-15 11:58N 37°41' E 023°30'3 1.4
2017-Sep-15 09:53N 37°42' E 023°27'3 1.7
2017-Sep-15 08:01N 37°45' E 023°25'0 8.4
2017-Sep-15 08:01N 37°45' E 023°25'510.3
2017-Sep-15 07:30N 37°47' E 023°31'613.0
2017-Sep-15 07:00N 37°47' E 023°39'611.0
2017-Sep-15 06:29N 37°48' E 023°47'0 0.1
2017-Sep-15 06:00N 37°48' E 023°47'0 0.0
2017-Sep-15 05:29N 37°48' E 023°47'0 0.0
2017-Sep-15 05:00N 37°48' E 023°47'3 5.1
2017-Sep-15 04:30N 37°46' E 023°45'510.4
2017-Sep-15 04:00N 37°41' E 023°42'5 9.5
2017-Sep-15 03:30N 37°37' E 023°39'6 9.5
2017-Sep-15 02:54N 37°32' E 023°36'12 9.0
2017-Sep-15 01:37N 37°24' E 023°26'2 9.3
2017-Sep-15 01:27N 37°23' E 023°24'  
2017-Sep-12 10:50N 37°22' E 023°28'0 0.1
2017-Sep-12 10:28N 37°22' E 023°28'4 0.3
2017-Sep-11 20:10N 37°23' E 023°23'210.0
2017-Sep-11 19:59N 37°23' E 023°25'16 8.4
2017-Sep-11 18:08N 37°38' E 023°34'1 8.8
2017-Sep-11 18:00N 37°39' E 023°34'5 9.2
2017-Sep-11 17:31N 37°43' E 023°35'5 9.3
2017-Sep-11 17:00N 37°48' E 023°36'5 9.4
2017-Sep-11 16:30N 37°52' E 023°37'4 7.9
2017-Sep-11 16:01N 37°56' E 023°39'0 0.1
2017-Sep-11 15:30N 37°56' E 023°39'510.5
2017-Sep-11 15:00N 37°51' E 023°36'612.5
2017-Sep-11 14:30N 37°48' E 023°29'5 3.0
2017-Sep-11 12:43N 37°44' E 023°25'313.2
2017-Sep-11 12:30N 37°41' E 023°25'713.3
2017-Sep-11 12:00N 37°35' E 023°29'5 1.2
2017-Sep-11 07:49N 37°38' E 023°34'512.9
2017-Sep-11 07:27N 37°43' E 023°35'612.9
2017-Sep-11 07:01N 37°48' E 023°36'612.8
2017-Sep-11 06:30N 37°54' E 023°38'2 3.2
2017-Sep-11 06:00N 37°56' E 023°39'0 0.0
2017-Sep-11 05:30N 37°56' E 023°39'0 0.0
2017-Sep-11 05:00N 37°56' E 023°39'0 0.1
2017-Sep-11 04:30N 37°56' E 023°39'5 9.4
2017-Sep-11 04:00N 37°51' E 023°38'510.7
2017-Sep-11 03:30N 37°46' E 023°36'510.6
2017-Sep-11 03:00N 37°41' E 023°35'18 8.7
2017-Sep-11 00:53N 37°24' E 023°26'3 0.2
2017-Sep-10 11:02N 37°21' E 023°27'0 0.3
2017-Sep-10 11:00N 37°21' E 023°27'0 0.0
2017-Sep-10 09:16N 37°21' E 023°27'1 0.9
2017-Sep-10 08:41N 37°21' E 023°28'  
Track history (hours):
 
Tides and Currents Weather Stations Pressure Air Temp Water Temp Dewpoint Dewpoint Depression Visibility Wind Speed Wind Dir Waves Ship Positions

Mandalena

Last reported at 2017-Sep-19 10:56 UTC. Time now 2017-Sep-20 01:52 UTC.
Position N 37°22' E 023°28'.

Length 44 m; draft 2.5 m.

Type: Ship (hazmat cat C). MMSI: 237016600.

Date/timePositionNaut miles runAvg speedWind from/ knotsBaromVisibWave heightAir tempDewpointWater temp
2017-Sep-19 10:56N 37°22' E 023°28'0 0.1
2017-Sep-19 08:57N 37°21' E 023°28'3 0.1
2017-Sep-17 19:25N 37°23' E 023°25'5 9.8
2017-Sep-17 18:57N 37°25' E 023°31'4 9.1
2017-Sep-17 18:30N 37°28' E 023°35'5 9.4
2017-Sep-17 18:00N 37°31' E 023°39'5 9.5
2017-Sep-17 17:30N 37°35' E 023°42'510.3
2017-Sep-17 17:00N 37°39' E 023°46'510.6
2017-Sep-17 16:30N 37°44' E 023°50'4 5.4
2017-Sep-17 15:45N 37°47' E 023°53'0 0.1
2017-Sep-17 15:28N 37°47' E 023°53'511.1
2017-Sep-17 15:00N 37°45' E 023°47'713.1
2017-Sep-17 14:30N 37°43' E 023°39'713.1
2017-Sep-17 14:00N 37°41' E 023°32'4 1.5
2017-Sep-17 11:24N 37°42' E 023°27'3 7.4
2017-Sep-17 10:59N 37°45' E 023°26'0 0.0
2017-Sep-17 10:30N 37°45' E 023°26'0 0.0
2017-Sep-17 10:00N 37°45' E 023°26'0 0.0
2017-Sep-17 09:30N 37°45' E 023°26'2 3.1
2017-Sep-17 08:59N 37°46' E 023°26'612.8
2017-Sep-17 08:30N 37°47' E 023°34'612.8
2017-Sep-17 08:00N 37°47' E 023°42'713.0
2017-Sep-17 07:30N 37°47' E 023°50'2 0.5
2017-Sep-17 04:02N 37°46' E 023°52'1 8.9
2017-Sep-17 03:58N 37°45' E 023°51'4 8.8
2017-Sep-17 03:30N 37°42' E 023°48'4 8.8
2017-Sep-17 02:59N 37°38' E 023°44'4 8.8
2017-Sep-17 02:31N 37°35' E 023°41'5 9.1
2017-Sep-17 02:00N 37°31' E 023°38'4 9.0
2017-Sep-17 01:30N 37°28' E 023°34'5 9.0
2017-Sep-17 01:00N 37°25' E 023°30'5 9.1
2017-Sep-17 00:27N 37°23' E 023°24'3 0.2
2017-Sep-16 09:18N 37°22' E 023°28'0 0.4
2017-Sep-16 08:58N 37°22' E 023°28'3 0.2
2017-Sep-15 16:55N 37°24' E 023°26'410.1
2017-Sep-15 16:30N 37°25' E 023°31'5 9.3
2017-Sep-15 15:59N 37°29' E 023°35'5 9.8
2017-Sep-15 15:30N 37°33' E 023°37'5 9.8
2017-Sep-15 15:00N 37°38' E 023°40'510.6
2017-Sep-15 14:31N 37°42' E 023°43'510.6
2017-Sep-15 14:00N 37°47' E 023°46'1 2.5
2017-Sep-15 13:30N 37°48' E 023°47'1 2.8
2017-Sep-15 13:00N 37°47' E 023°46'613.0
2017-Sep-15 12:30N 37°44' E 023°38'713.2
2017-Sep-15 11:58N 37°41' E 023°30'3 1.4
2017-Sep-15 09:53N 37°42' E 023°27'3 1.7
2017-Sep-15 08:01N 37°45' E 023°25'0 8.4
2017-Sep-15 08:01N 37°45' E 023°25'510.3
2017-Sep-15 07:30N 37°47' E 023°31'613.0
2017-Sep-15 07:00N 37°47' E 023°39'611.0
2017-Sep-15 06:29N 37°48' E 023°47'0 0.1
2017-Sep-15 06:00N 37°48' E 023°47'0 0.0
2017-Sep-15 05:29N 37°48' E 023°47'0 0.0
2017-Sep-15 05:00N 37°48' E 023°47'3 5.1
2017-Sep-15 04:30N 37°46' E 023°45'510.4
2017-Sep-15 04:00N 37°41' E 023°42'5 9.5
2017-Sep-15 03:30N 37°37' E 023°39'6 9.5
2017-Sep-15 02:54N 37°32' E 023°36'12 9.0
2017-Sep-15 01:37N 37°24' E 023°26'2 9.3
2017-Sep-15 01:27N 37°23' E 023°24'  
2017-Sep-12 10:50N 37°22' E 023°28'0 0.1
2017-Sep-12 10:28N 37°22' E 023°28'4 0.3
2017-Sep-11 20:10N 37°23' E 023°23'210.0
2017-Sep-11 19:59N 37°23' E 023°25'16 8.4
2017-Sep-11 18:08N 37°38' E 023°34'1 8.8
2017-Sep-11 18:00N 37°39' E 023°34'5 9.2
2017-Sep-11 17:31N 37°43' E 023°35'5 9.3
2017-Sep-11 17:00N 37°48' E 023°36'5 9.4
2017-Sep-11 16:30N 37°52' E 023°37'4 7.9
2017-Sep-11 16:01N 37°56' E 023°39'0 0.1
2017-Sep-11 15:30N 37°56' E 023°39'510.5
2017-Sep-11 15:00N 37°51' E 023°36'612.5
2017-Sep-11 14:30N 37°48' E 023°29'5 3.0
2017-Sep-11 12:43N 37°44' E 023°25'313.2
2017-Sep-11 12:30N 37°41' E 023°25'713.3
2017-Sep-11 12:00N 37°35' E 023°29'5 1.2
2017-Sep-11 07:49N 37°38' E 023°34'512.9
2017-Sep-11 07:27N 37°43' E 023°35'612.9
2017-Sep-11 07:01N 37°48' E 023°36'612.8
2017-Sep-11 06:30N 37°54' E 023°38'2 3.2
2017-Sep-11 06:00N 37°56' E 023°39'0 0.0
2017-Sep-11 05:30N 37°56' E 023°39'0 0.0
2017-Sep-11 05:00N 37°56' E 023°39'0 0.1
2017-Sep-11 04:30N 37°56' E 023°39'5 9.4
2017-Sep-11 04:00N 37°51' E 023°38'510.7
2017-Sep-11 03:30N 37°46' E 023°36'510.6
2017-Sep-11 03:00N 37°41' E 023°35'18 8.7
2017-Sep-11 00:53N 37°24' E 023°26'3 0.2
2017-Sep-10 11:02N 37°21' E 023°27'0 0.3
2017-Sep-10 11:00N 37°21' E 023°27'0 0.0
2017-Sep-10 09:16N 37°21' E 023°27'1 0.9
2017-Sep-10 08:41N 37°21' E 023°28'  

Dump ship's entire track history